createdAt,value
2018-07-31T05:15:04.164Z,22.03
2018-07-31T05:17:34.365Z,22.27
2018-07-31T05:20:04.759Z,22.38
2018-07-31T05:22:34.520Z,22.41
2018-07-31T05:25:04.278Z,22.32
2018-07-31T05:27:34.404Z,22.55
2018-07-31T05:30:04.110Z,22.59
2018-07-31T05:32:34.549Z,22.70
2018-07-31T05:35:04.762Z,22.64
2018-07-31T05:37:35.091Z,22.74
2018-07-31T05:40:05.685Z,22.34
2018-07-31T05:42:35.751Z,22.20
2018-07-31T05:45:05.993Z,22.38
2018-07-31T05:47:36.329Z,22.45
2018-07-31T05:50:07.452Z,22.65
2018-07-31T05:52:37.264Z,22.83
2018-07-31T05:55:07.089Z,22.99
2018-07-31T05:57:37.208Z,22.37
2018-07-31T06:00:07.883Z,22.43
2018-07-31T06:02:37.611Z,22.82
2018-07-31T06:05:07.771Z,22.81
2018-07-31T06:07:37.474Z,22.61
2018-07-31T06:10:08.518Z,22.73
2018-07-31T06:12:38.423Z,22.87
2018-07-31T06:15:09.260Z,23.10
2018-07-31T06:17:38.899Z,22.60
2018-07-31T06:20:13.862Z,22.79
2018-07-31T06:22:44.572Z,22.84
2018-07-31T06:25:14.793Z,22.83
2018-07-31T06:27:45.710Z,23.01
2018-07-31T06:30:16.002Z,23.22
2018-07-31T06:32:46.070Z,23.29
2018-07-31T06:35:16.440Z,23.46
2018-07-31T06:37:46.475Z,23.66
2018-07-31T06:40:16.245Z,23.81
2018-07-31T06:42:45.973Z,23.78
2018-07-31T06:45:15.685Z,23.34
2018-07-31T06:47:45.354Z,23.03
2018-07-31T06:50:15.150Z,23.04
2018-07-31T06:52:44.958Z,23.45
2018-07-31T06:55:14.651Z,23.75
2018-07-31T06:57:44.361Z,23.78
2018-07-31T07:00:14.296Z,23.48
2018-07-31T07:02:43.891Z,22.95
2018-07-31T07:05:13.640Z,23.04
2018-07-31T07:07:43.759Z,23.33
2018-07-31T07:10:13.572Z,23.62
2018-07-31T07:12:43.321Z,23.78
2018-07-31T07:15:13.400Z,24.02
2018-07-31T07:17:43.179Z,24.09
2018-07-31T07:20:12.931Z,24.22
2018-07-31T07:22:42.926Z,24.44
2018-07-31T07:25:12.763Z,24.63
2018-07-31T07:27:43.033Z,24.52
2018-07-31T07:30:12.831Z,24.72
2018-07-31T07:32:42.539Z,24.88
2018-07-31T07:35:12.175Z,25.02
2018-07-31T07:37:41.944Z,25.17
2018-07-31T07:40:11.744Z,25.25
2018-07-31T07:42:41.441Z,24.89
2018-07-31T07:45:11.154Z,25.17
2018-07-31T07:47:40.788Z,25.28
2018-07-31T07:50:10.516Z,25.18
2018-07-31T07:52:40.195Z,25.00
2018-07-31T07:55:10.161Z,25.08
2018-07-31T07:57:40.248Z,25.18
2018-07-31T08:00:10.950Z,25.15
2018-07-31T08:02:40.902Z,25.22
2018-07-31T08:05:10.564Z,25.22
2018-07-31T08:07:40.627Z,25.21
2018-07-31T08:10:10.423Z,25.12
2018-07-31T08:12:40.218Z,25.23
2018-07-31T08:15:09.999Z,25.34
2018-07-31T08:17:39.694Z,24.94
2018-07-31T08:20:09.740Z,25.17
2018-07-31T08:22:39.600Z,24.96
2018-07-31T08:25:09.323Z,25.07
2018-07-31T08:27:39.552Z,25.02
2018-07-31T08:30:09.315Z,25.25
2018-07-31T08:32:39.515Z,25.35
2018-07-31T08:35:09.281Z,25.57
2018-07-31T08:37:39.428Z,25.40
2018-07-31T08:40:09.171Z,25.49
2018-07-31T08:42:38.924Z,25.73
2018-07-31T08:45:09.194Z,25.85
2018-07-31T08:47:39.063Z,25.67
2018-07-31T08:50:09.101Z,25.70
2018-07-31T08:52:38.818Z,25.86
2018-07-31T08:55:08.936Z,25.96
2018-07-31T08:57:38.629Z,26.06
2018-07-31T09:00:09.872Z,26.07
2018-07-31T09:02:39.550Z,26.13
2018-07-31T09:05:09.618Z,26.19
2018-07-31T09:07:39.813Z,26.19
2018-07-31T09:10:09.449Z,26.21
2018-07-31T09:12:39.169Z,26.11
2018-07-31T09:15:08.907Z,25.89
2018-07-31T09:17:38.675Z,25.67
2018-07-31T09:20:08.699Z,25.86
2018-07-31T09:22:38.501Z,25.97
2018-07-31T09:25:08.227Z,26.01
2018-07-31T09:27:37.842Z,25.86
2018-07-31T09:30:07.639Z,25.81
2018-07-31T09:32:42.554Z,25.89
2018-07-31T09:35:12.419Z,25.54
2018-07-31T09:37:42.246Z,25.82
2018-07-31T09:40:12.068Z,25.98
2018-07-31T09:42:41.979Z,26.19
2018-07-31T09:45:11.932Z,26.28
2018-07-31T09:47:41.605Z,26.40
2018-07-31T09:50:11.214Z,26.44
2018-07-31T09:52:40.868Z,26.51
2018-07-31T09:55:10.613Z,26.56
2018-07-31T09:57:40.615Z,26.51
2018-07-31T10:00:10.522Z,26.56
2018-07-31T10:02:40.352Z,26.59
2018-07-31T10:05:10.098Z,26.63
2018-07-31T10:07:39.903Z,26.41
2018-07-31T10:10:09.716Z,26.43
2018-07-31T10:12:39.522Z,26.66
2018-07-31T10:15:09.448Z,26.58
2018-07-31T10:17:39.163Z,26.67
2018-07-31T10:20:08.905Z,26.74
2018-07-31T10:22:38.564Z,26.59
2018-07-31T10:25:08.664Z,26.55
2018-07-31T10:27:38.365Z,26.59
2018-07-31T10:30:08.671Z,26.57
2018-07-31T10:32:38.324Z,26.64
2018-07-31T10:35:09.350Z,26.82
2018-07-31T10:37:39.496Z,26.71
2018-07-31T10:40:09.685Z,26.84
2018-07-31T10:42:39.514Z,26.95
2018-07-31T10:45:09.207Z,27.00
2018-07-31T10:47:38.788Z,27.00
2018-07-31T10:50:08.554Z,27.21
2018-07-31T10:52:38.450Z,27.25
2018-07-31T10:55:08.314Z,27.08
2018-07-31T10:57:38.018Z,27.13
2018-07-31T11:00:08.139Z,27.19
2018-07-31T11:02:38.191Z,27.19
2018-07-31T11:05:08.328Z,27.24
2018-07-31T11:07:38.540Z,27.10
2018-07-31T11:10:08.616Z,27.25
2018-07-31T11:12:38.777Z,27.24
2018-07-31T11:15:08.444Z,27.18
2018-07-31T11:17:39.027Z,27.07
2018-07-31T11:20:09.198Z,27.21
2018-07-31T11:22:38.962Z,27.15
2018-07-31T11:25:08.856Z,27.38
2018-07-31T11:27:38.494Z,27.13
2018-07-31T11:30:08.754Z,27.21
2018-07-31T11:32:38.610Z,27.36
2018-07-31T11:35:08.939Z,27.42
2018-07-31T11:37:38.598Z,27.39
2018-07-31T11:40:08.171Z,27.37
2018-07-31T11:42:37.983Z,27.24
2018-07-31T11:45:07.660Z,27.34
2018-07-31T11:47:37.723Z,27.28
2018-07-31T11:50:07.457Z,27.21
2018-07-31T11:52:37.165Z,27.33
2018-07-31T11:55:06.839Z,27.46
2018-07-31T11:57:36.422Z,27.55
2018-07-31T12:00:08.394Z,27.58
2018-07-31T12:02:38.180Z,27.53
2018-07-31T12:05:09.037Z,27.50
2018-07-31T12:07:38.868Z,27.60
2018-07-31T12:10:08.812Z,27.65
2018-07-31T12:12:38.493Z,27.68
2018-07-31T12:15:08.355Z,27.73
2018-07-31T12:17:38.089Z,27.69
2018-07-31T12:20:07.918Z,27.70
2018-07-31T12:22:37.636Z,27.64
2018-07-31T12:25:07.703Z,27.57
2018-07-31T12:27:37.432Z,27.54
2018-07-31T12:30:09.538Z,27.52
2018-07-31T12:32:40.644Z,27.49
2018-07-31T12:35:10.939Z,27.44
2018-07-31T12:37:41.014Z,27.36
2018-07-31T12:40:10.807Z,27.25
2018-07-31T12:42:40.847Z,27.28
2018-07-31T12:45:10.843Z,27.23
2018-07-31T12:47:40.565Z,27.17
2018-07-31T12:50:10.848Z,27.04
2018-07-31T12:52:40.603Z,26.81
2018-07-31T12:55:10.848Z,26.44
2018-07-31T12:57:40.606Z,26.28
2018-07-31T13:00:10.396Z,26.49
2018-07-31T13:02:40.744Z,26.40
2018-07-31T13:05:10.416Z,26.46
2018-07-31T13:07:40.270Z,26.39
2018-07-31T13:10:10.479Z,26.23
2018-07-31T13:12:40.330Z,26.38
2018-07-31T13:15:10.164Z,26.23
2018-07-31T13:17:40.051Z,26.24
2018-07-31T13:20:09.749Z,26.19
2018-07-31T13:22:39.421Z,26.21
2018-07-31T13:25:09.120Z,26.09
2018-07-31T13:27:38.909Z,26.18
2018-07-31T13:30:09.071Z,26.16
2018-07-31T13:32:38.702Z,26.19
2018-07-31T13:35:08.580Z,26.22
2018-07-31T13:37:38.475Z,26.26
2018-07-31T13:40:08.848Z,26.15
2018-07-31T13:42:38.538Z,26.22
2018-07-31T13:45:08.449Z,26.17
2018-07-31T13:47:38.243Z,26.17
2018-07-31T13:50:07.841Z,26.14
2018-07-31T13:52:37.786Z,25.97
2018-07-31T13:55:07.609Z,25.84
2018-07-31T13:57:37.452Z,25.84
2018-07-31T14:00:07.368Z,25.69
2018-07-31T14:02:37.128Z,25.75
2018-07-31T14:05:06.868Z,25.79
2018-07-31T14:07:36.582Z,25.80
2018-07-31T14:10:06.562Z,25.74
2018-07-31T14:12:36.492Z,25.72
2018-07-31T14:15:06.338Z,25.66
2018-07-31T14:17:36.255Z,25.71
2018-07-31T14:20:06.162Z,25.75
2018-07-31T14:22:35.999Z,25.69
2018-07-31T14:25:06.045Z,25.53
2018-07-31T14:27:36.471Z,25.48
2018-07-31T14:30:06.649Z,25.58
2018-07-31T14:32:36.743Z,25.61
2018-07-31T14:35:06.427Z,25.26
2018-07-31T14:37:36.222Z,24.91
2018-07-31T14:40:06.115Z,24.94
2018-07-31T14:42:35.819Z,24.97
2018-07-31T14:45:05.934Z,25.12
2018-07-31T14:47:35.488Z,25.19
2018-07-31T14:50:05.683Z,25.20
2018-07-31T14:52:35.314Z,25.31
2018-07-31T14:55:05.163Z,24.51
2018-07-31T14:57:35.126Z,24.34
2018-07-31T15:00:05.473Z,24.74
2018-07-31T15:02:35.983Z,24.92
2018-07-31T15:05:05.881Z,25.05
2018-07-31T15:07:35.602Z,24.94
2018-07-31T15:10:05.891Z,25.09
2018-07-31T15:12:35.860Z,25.02
2018-07-31T15:15:06.155Z,24.71
2018-07-31T15:17:36.167Z,24.93
2018-07-31T15:20:06.003Z,24.99
2018-07-31T15:22:35.726Z,25.19
2018-07-31T15:25:05.962Z,25.32
2018-07-31T15:27:35.740Z,25.26
2018-07-31T15:30:06.586Z,25.40
2018-07-31T15:32:36.257Z,25.55
2018-07-31T15:35:05.954Z,25.63
2018-07-31T15:37:35.925Z,25.74
2018-07-31T15:40:05.783Z,25.85
2018-07-31T15:42:35.602Z,25.95
2018-07-31T15:45:05.510Z,25.98
2018-07-31T15:47:35.556Z,25.82
2018-07-31T15:50:05.884Z,25.76
2018-07-31T15:52:35.528Z,25.90
2018-07-31T15:55:05.845Z,25.96
2018-07-31T15:57:35.948Z,26.06
2018-07-31T16:00:08.559Z,25.93
2018-07-31T16:02:38.444Z,26.07
2018-07-31T16:05:09.366Z,26.12
2018-07-31T16:07:39.087Z,26.01
2018-07-31T16:10:08.615Z,26.15
2018-07-31T16:12:38.335Z,26.13
2018-07-31T16:15:08.052Z,26.24
2018-07-31T16:17:37.749Z,26.34
2018-07-31T16:20:07.541Z,26.40
2018-07-31T16:22:37.183Z,26.44
2018-07-31T16:25:07.118Z,26.38
2018-07-31T16:27:36.908Z,26.24
2018-07-31T16:30:07.416Z,25.79
2018-07-31T16:32:37.208Z,25.91
2018-07-31T16:35:07.261Z,26.04
2018-07-31T16:37:36.938Z,25.42
2018-07-31T16:40:06.741Z,25.33
2018-07-31T16:42:36.898Z,25.66
2018-07-31T16:45:06.808Z,25.86
2018-07-31T16:47:36.635Z,26.00
2018-07-31T16:50:06.634Z,25.86
2018-07-31T16:52:36.406Z,25.97
2018-07-31T16:55:06.354Z,25.96
2018-07-31T16:57:36.259Z,26.01
2018-07-31T17:00:07.224Z,26.11
2018-07-31T17:02:37.155Z,26.16
2018-07-31T17:05:07.003Z,26.21
2018-07-31T17:07:36.848Z,26.23
2018-07-31T17:10:13.373Z,26.20
2018-07-31T17:12:42.962Z,26.17
2018-07-31T17:15:12.691Z,26.10
2018-07-31T17:17:42.357Z,26.05
2018-07-31T17:20:12.087Z,26.02
2018-07-31T17:22:41.775Z,25.95
2018-07-31T17:25:11.474Z,25.89
2018-07-31T17:27:41.622Z,25.84
2018-07-31T17:30:11.486Z,25.78
2018-07-31T17:32:41.258Z,25.63
2018-07-31T17:35:11.176Z,25.57
2018-07-31T17:37:47.165Z,25.61
2018-07-31T17:40:16.741Z,25.53
2018-07-31T17:42:46.450Z,25.49
2018-07-31T17:45:16.215Z,25.46
2018-07-31T17:47:45.987Z,25.25
2018-07-31T17:50:15.597Z,25.08
2018-07-31T17:52:45.550Z,25.04
2018-07-31T17:55:15.286Z,24.96
2018-07-31T17:57:45.177Z,24.91
2018-07-31T18:00:14.835Z,24.93
2018-07-31T18:02:45.646Z,25.01
2018-07-31T18:05:15.293Z,25.03
2018-07-31T18:07:45.408Z,25.03
2018-07-31T18:10:15.258Z,24.44
2018-07-31T18:12:44.868Z,23.83
2018-07-31T18:15:14.550Z,24.25
2018-07-31T18:17:44.323Z,24.43
2018-07-31T18:20:13.964Z,24.57
2018-07-31T18:22:43.768Z,24.63
2018-07-31T18:25:13.559Z,24.46
2018-07-31T18:27:43.282Z,24.38
2018-07-31T18:30:12.972Z,24.20
2018-07-31T18:32:42.716Z,24.34
2018-07-31T18:35:12.699Z,24.34
2018-07-31T18:37:42.196Z,24.43
2018-07-31T18:40:11.867Z,24.57
2018-07-31T18:42:41.595Z,24.48
2018-07-31T18:45:11.178Z,24.59
2018-07-31T18:47:40.835Z,24.68
2018-07-31T19:01:58.039Z,24.76
2018-07-31T19:04:27.854Z,24.77
2018-07-31T19:06:57.445Z,24.71
2018-07-31T19:09:27.241Z,24.64
2018-07-31T19:11:56.912Z,24.64
2018-07-31T19:14:26.508Z,24.62
2018-07-31T19:16:56.466Z,24.60
2018-07-31T19:19:26.371Z,24.54
2018-07-31T19:21:56.097Z,24.56
2018-07-31T19:24:25.796Z,24.38
2018-07-31T19:26:55.388Z,24.49
2018-07-31T19:29:25.657Z,24.56
2018-07-31T19:31:56.296Z,24.56
2018-07-31T19:34:26.656Z,24.55
2018-07-31T19:36:57.099Z,24.49
2018-07-31T19:39:27.222Z,24.45
2018-07-31T19:41:57.246Z,24.37
2018-07-31T19:44:27.719Z,24.33
2018-07-31T19:46:57.590Z,24.28
2018-07-31T19:49:28.988Z,24.24
2018-07-31T19:51:58.636Z,24.15
2018-07-31T19:54:28.619Z,24.10
2018-07-31T19:56:58.905Z,24.04
2018-07-31T19:59:29.120Z,23.99
2018-07-31T20:01:58.931Z,23.95
2018-07-31T20:04:28.658Z,23.91
2018-07-31T20:06:58.370Z,23.91
2018-07-31T20:09:29.174Z,23.84
2018-07-31T20:11:59.519Z,23.85
2018-07-31T20:14:29.153Z,23.82
2018-07-31T20:16:58.919Z,23.76
2018-07-31T20:19:28.931Z,23.71
2018-07-31T20:21:58.567Z,23.66
2018-07-31T20:24:28.424Z,23.61
2018-07-31T20:26:58.406Z,23.59
2018-07-31T20:29:28.101Z,23.61
2018-07-31T20:31:57.963Z,23.60
2018-07-31T20:34:27.835Z,23.56
2018-07-31T20:36:57.780Z,23.57
2018-07-31T20:39:27.341Z,23.56
2018-07-31T20:41:57.676Z,23.58
2018-07-31T20:44:27.431Z,23.58
2018-07-31T20:46:58.464Z,23.52
2018-07-31T20:49:28.188Z,23.47
2018-07-31T20:51:57.976Z,23.46
2018-07-31T20:54:27.855Z,23.46
2018-07-31T20:56:57.570Z,23.50
2018-07-31T20:59:27.809Z,23.45
2018-07-31T21:01:57.543Z,23.55
2018-07-31T21:04:27.572Z,23.59
2018-07-31T21:06:57.307Z,23.55
2018-07-31T21:09:27.084Z,23.50
2018-07-31T21:11:56.998Z,23.54
2018-07-31T21:14:26.815Z,23.54
2018-07-31T21:16:56.626Z,23.57
2018-07-31T21:19:26.845Z,23.55
2018-07-31T21:21:56.424Z,23.54
2018-07-31T21:24:26.073Z,23.55
2018-07-31T21:26:55.950Z,23.58
2018-07-31T21:29:25.737Z,23.59
2018-07-31T21:31:55.338Z,23.56
2018-07-31T21:34:25.060Z,23.58
2018-07-31T21:36:54.650Z,23.49
2018-07-31T21:39:24.470Z,23.47
2018-07-31T21:41:54.081Z,23.43
2018-07-31T21:44:23.947Z,23.39
2018-07-31T21:46:53.902Z,23.40
2018-07-31T21:49:23.529Z,23.39
2018-07-31T21:51:53.229Z,23.31
2018-07-31T21:54:22.889Z,23.26
2018-07-31T21:56:52.515Z,23.02
2018-07-31T21:59:22.327Z,23.16
2018-07-31T22:01:52.032Z,23.16
2018-07-31T22:04:21.635Z,23.17
2018-07-31T22:06:51.562Z,23.12
2018-07-31T22:09:26.247Z,23.10
2018-07-31T22:11:56.345Z,23.12
2018-07-31T22:14:25.950Z,23.06
2018-07-31T22:16:56.028Z,23.08
2018-07-31T22:19:25.719Z,23.11
2018-07-31T22:21:55.326Z,23.20
2018-07-31T22:24:24.942Z,23.19
2018-07-31T22:26:54.536Z,23.15
2018-07-31T22:29:24.327Z,23.08
2018-07-31T22:31:53.878Z,23.03
2018-07-31T22:34:23.571Z,23.01
2018-07-31T22:36:53.194Z,23.02
2018-07-31T22:39:23.000Z,22.99
2018-07-31T22:41:52.872Z,22.99
2018-07-31T22:44:22.534Z,22.98
2018-07-31T22:46:52.276Z,22.95
2018-07-31T22:49:22.041Z,22.93
2018-07-31T22:51:51.743Z,22.93
2018-07-31T22:54:21.534Z,22.86
2018-07-31T22:56:51.275Z,22.87
2018-07-31T22:59:21.282Z,22.90
2018-07-31T23:01:50.955Z,22.89
2018-07-31T23:04:20.520Z,22.83
2018-07-31T23:06:50.198Z,22.86
2018-07-31T23:09:19.926Z,22.78
2018-07-31T23:11:49.470Z,22.70
2018-07-31T23:14:19.159Z,22.68
2018-07-31T23:16:48.895Z,22.67
2018-07-31T23:19:18.610Z,22.67
2018-07-31T23:21:48.379Z,22.72
2018-07-31T23:24:18.124Z,22.73
2018-07-31T23:26:47.921Z,22.53
2018-07-31T23:29:17.667Z,22.48
2018-07-31T23:31:47.388Z,22.17
2018-07-31T23:34:17.895Z,22.34
2018-07-31T23:36:47.602Z,21.58
2018-07-31T23:39:17.244Z,21.88
2018-07-31T23:41:47.025Z,21.95
2018-07-31T23:44:16.547Z,22.21
2018-07-31T23:46:46.244Z,22.29
2018-07-31T23:49:16.040Z,22.37
2018-07-31T23:51:45.678Z,22.38
2018-07-31T23:54:15.378Z,22.34
2018-07-31T23:56:45.144Z,22.26
2018-07-31T23:59:15.255Z,22.23
